createdAt,value
2022-11-26T00:01:35.262Z,101170.09
2022-11-26T00:03:37.208Z,101174.19
2022-11-26T00:05:43.217Z,101165.94
2022-11-26T00:07:58.635Z,101174.50
2022-11-26T00:10:02.251Z,101176.09
2022-11-26T00:12:20.285Z,101176.84
2022-11-26T00:14:22.076Z,101179.38
2022-11-26T00:16:24.046Z,101173.44
2022-11-26T00:18:26.995Z,101173.56
2022-11-26T00:20:31.828Z,101175.19
2022-11-26T00:22:40.412Z,101181.22
2022-11-26T00:24:45.588Z,101177.63
2022-11-26T00:26:47.430Z,101183.69
2022-11-26T00:29:00.452Z,101182.03
2022-11-26T00:31:07.005Z,101179.56
2022-11-26T00:33:09.893Z,101187.16
2022-11-26T00:35:13.329Z,101179.56
2022-11-26T00:37:24.895Z,101181.34
2022-11-26T00:39:32.543Z,101188.16
2022-11-26T00:41:38.415Z,101187.41
2022-11-26T00:43:42.367Z,101185.63
2022-11-26T00:45:44.517Z,101184.63
2022-11-26T00:47:47.503Z,101190.38
2022-11-26T00:49:54.366Z,101183.09
2022-11-26T00:51:58.252Z,101188.16
2022-11-26T00:54:04.192Z,101185.63
2022-11-26T00:56:06.234Z,101195.00
2022-11-26T00:58:21.399Z,101191.50
2022-11-26T01:00:32.814Z,101190.81
2022-11-26T01:02:35.713Z,101191.50
2022-11-26T01:04:37.913Z,101189.94
2022-11-26T01:06:43.350Z,101189.94
2022-11-26T01:08:46.791Z,101189.28
2022-11-26T01:10:55.816Z,101192.69
2022-11-26T01:13:07.015Z,101198.53
2022-11-26T01:15:09.170Z,101202.69
2022-11-26T01:17:12.348Z,101197.75
2022-11-26T01:19:15.893Z,101193.81
2022-11-26T01:21:18.837Z,101199.28
2022-11-26T01:23:21.096Z,101200.41
2022-11-26T01:25:24.651Z,101203.69
2022-11-26T01:27:28.514Z,101201.81
2022-11-26T01:29:30.373Z,101203.69
2022-11-26T01:31:33.277Z,101207.13
2022-11-26T01:33:35.162Z,101210.41
2022-11-26T01:35:41.079Z,101208.88
2022-11-26T01:37:43.789Z,101208.66
2022-11-26T01:39:49.717Z,101209.66
2022-11-26T01:42:00.257Z,101210.97
2022-11-26T01:44:07.749Z,101207.75
2022-11-26T01:46:18.299Z,101211.97
2022-11-26T01:48:28.284Z,101201.81
2022-11-26T01:50:33.229Z,101204.59
2022-11-26T01:52:37.114Z,101205.56
2022-11-26T01:54:49.349Z,101206.56
2022-11-26T01:56:57.210Z,101207.22
2022-11-26T01:59:08.699Z,101207.88
2022-11-26T02:01:16.839Z,101207.88
2022-11-26T02:03:20.859Z,101204.34
2022-11-26T02:05:28.668Z,101203.69
2022-11-26T02:07:30.804Z,101209.53
2022-11-26T02:09:33.669Z,101213.06
2022-11-26T02:11:36.327Z,101215.69
2022-11-26T02:13:38.193Z,101209.00
2022-11-26T02:15:51.478Z,101217.47
2022-11-26T02:18:03.308Z,101221.53
2022-11-26T02:20:35.554Z,101220.88
2022-11-26T02:22:49.797Z,101211.88
2022-11-26T02:25:03.013Z,101225.75
2022-11-26T02:27:26.363Z,101226.50
2022-11-26T02:29:46.510Z,101224.09
2022-11-26T02:31:50.352Z,101233.44
2022-11-26T02:34:11.918Z,101230.69
2022-11-26T02:36:21.495Z,101222.22
2022-11-26T02:38:33.302Z,101239.28
2022-11-26T02:40:35.372Z,101235.22
2022-11-26T02:42:37.413Z,101234.22
2022-11-26T02:44:45.133Z,101224.28
2022-11-26T02:46:49.963Z,101222.41
2022-11-26T02:48:53.173Z,101228.34
2022-11-26T02:51:12.464Z,101227.69
2022-11-26T02:53:19.369Z,101223.41
2022-11-26T02:55:27.135Z,101215.81
2022-11-26T02:57:37.053Z,101216.94
2022-11-26T02:59:39.753Z,101219.47
2022-11-26T03:01:52.944Z,101216.94
2022-11-26T03:04:00.857Z,101220.34
2022-11-26T03:06:10.063Z,101216.81
2022-11-26T03:08:13.927Z,101219.47
2022-11-26T03:10:16.995Z,101221.66
2022-11-26T03:12:22.056Z,101234.41
2022-11-26T03:14:23.930Z,101229.16
2022-11-26T03:16:26.089Z,101236.19
2022-11-26T03:18:28.165Z,101234.41
2022-11-26T03:20:34.208Z,101225.81
2022-11-26T03:22:38.149Z,101230.91
2022-11-26T03:24:46.287Z,101235.97
2022-11-26T03:26:50.237Z,101234.34
2022-11-26T03:28:54.149Z,101241.03
2022-11-26T03:30:55.989Z,101239.28
2022-11-26T03:32:59.919Z,101233.44
2022-11-26T03:35:02.953Z,101241.03
2022-11-26T03:37:05.799Z,101239.28
2022-11-26T03:39:08.652Z,101240.06
2022-11-26T03:41:10.439Z,101244.88
2022-11-26T03:43:12.301Z,101241.69
2022-11-26T03:45:17.264Z,101243.03
2022-11-26T03:47:19.241Z,101248.75
2022-11-26T03:49:22.139Z,101248.75
2022-11-26T03:51:23.960Z,101251.94
2022-11-26T03:53:26.836Z,101256.56
2022-11-26T03:55:28.719Z,101263.16
2022-11-26T03:57:32.604Z,101259.53
2022-11-26T03:59:37.757Z,101261.97
2022-11-26T04:01:39.891Z,101260.41
2022-11-26T04:03:42.873Z,101251.06
2022-11-26T04:05:45.765Z,101258.88
2022-11-26T04:07:50.771Z,101264.59
2022-11-26T04:09:54.778Z,101263.50
2022-11-26T04:11:56.645Z,101265.47
2022-11-26T04:14:01.571Z,101268.81
2022-11-26T04:16:03.468Z,101267.16
2022-11-26T04:18:05.362Z,101267.25
2022-11-26T04:20:09.789Z,101278.03
2022-11-26T04:22:12.608Z,101276.41
2022-11-26T04:24:15.475Z,101264.59
2022-11-26T04:26:17.320Z,101276.28
2022-11-26T04:28:20.142Z,101277.41
2022-11-26T04:30:21.995Z,101277.06
2022-11-26T04:32:25.972Z,101272.75
2022-11-26T04:34:28.083Z,101293.88
2022-11-26T04:36:32.671Z,101291.47
2022-11-26T04:38:35.660Z,101290.38
2022-11-26T04:40:37.738Z,101287.94
2022-11-26T04:42:39.685Z,101291.34
2022-11-26T04:44:41.631Z,101289.81
2022-11-26T04:46:45.572Z,101295.66
2022-11-26T04:48:48.375Z,101298.41
2022-11-26T04:50:50.457Z,101305.88
2022-11-26T04:52:52.365Z,101300.72
2022-11-26T04:54:54.348Z,101304.13
2022-11-26T04:56:58.196Z,101301.47
2022-11-26T04:59:01.999Z,101306.47
2022-11-26T05:01:04.169Z,101298.75
2022-11-26T05:03:06.162Z,101304.34
2022-11-26T05:05:08.422Z,101308.66
2022-11-26T05:07:10.756Z,101306.66
2022-11-26T05:09:14.657Z,101305.13
2022-11-26T05:11:17.463Z,101309.63
2022-11-26T05:13:20.361Z,101304.22
2022-11-26T05:15:23.273Z,101305.09
2022-11-26T05:17:25.162Z,101310.81
2022-11-26T05:19:27.093Z,101311.69
2022-11-26T05:21:29.007Z,101312.56
2022-11-26T05:23:30.804Z,101321.81
2022-11-26T05:25:32.709Z,101319.28
2022-11-26T05:27:34.593Z,101315.88
2022-11-26T05:29:39.373Z,101321.16
2022-11-26T05:31:42.226Z,101321.94
2022-11-26T05:33:45.162Z,101326.22
2022-11-26T05:35:46.967Z,101324.22
2022-11-26T05:37:48.796Z,101328.84
2022-11-26T05:39:50.609Z,101333.66
2022-11-26T05:41:52.400Z,101330.38
2022-11-26T05:43:54.322Z,101328.84
2022-11-26T05:45:57.287Z,101332.13
2022-11-26T05:48:02.242Z,101343.03
2022-11-26T05:50:05.629Z,101345.56
2022-11-26T05:52:08.455Z,101349.34
2022-11-26T05:54:19.148Z,101355.06
2022-11-26T05:56:25.085Z,101358.25
2022-11-26T05:58:30.015Z,101362.66
2022-11-26T06:00:32.893Z,101360.00
2022-11-26T06:02:34.836Z,101364.31
2022-11-26T06:04:45.432Z,101361.00
2022-11-26T06:06:49.380Z,101370.13
2022-11-26T06:08:52.280Z,101365.19
2022-11-26T06:10:56.258Z,101368.44
2022-11-26T06:12:58.119Z,101370.91
2022-11-26T06:15:00.033Z,101369.13
2022-11-26T06:17:02.952Z,101375.19
2022-11-26T06:19:04.868Z,101375.97
2022-11-26T06:21:08.583Z,101375.81
2022-11-26T06:23:10.832Z,101381.03
2022-11-26T06:25:18.504Z,101390.72
2022-11-26T06:27:20.289Z,101383.66
2022-11-26T06:29:27.570Z,101394.13
2022-11-26T06:31:29.944Z,101387.09
2022-11-26T06:33:36.577Z,101389.84
2022-11-26T06:35:38.536Z,101391.59
2022-11-26T06:37:41.690Z,101392.91
2022-11-26T06:39:45.548Z,101396.97
2022-11-26T06:41:47.437Z,101396.72
2022-11-26T06:43:49.323Z,101396.59
2022-11-26T06:46:06.166Z,101390.94
2022-11-26T06:48:08.171Z,101398.50
2022-11-26T06:50:25.198Z,101396.09
2022-11-26T06:52:36.873Z,101406.34
2022-11-26T06:54:40.717Z,101411.03
2022-11-26T06:56:50.782Z,101412.69
2022-11-26T06:58:57.423Z,101407.00
2022-11-26T07:01:21.491Z,101416.25
2022-11-26T07:03:29.306Z,101421.81
2022-11-26T07:05:38.017Z,101421.03
2022-11-26T07:07:40.509Z,101419.00
2022-11-26T07:09:42.629Z,101421.31
2022-11-26T07:11:44.688Z,101420.16
2022-11-26T07:14:02.178Z,101425.09
2022-11-26T07:16:05.979Z,101431.69
2022-11-26T07:18:08.935Z,101424.34
2022-11-26T07:20:16.081Z,101427.88
2022-11-26T07:22:28.030Z,101431.81
2022-11-26T07:24:31.203Z,101433.00
2022-11-26T07:26:35.098Z,101442.00
2022-11-26T07:28:47.431Z,101434.06
2022-11-26T07:30:50.277Z,101441.66
2022-11-26T07:32:54.104Z,101447.09
2022-11-26T07:34:56.019Z,101443.94
2022-11-26T07:36:58.881Z,101456.56
2022-11-26T07:39:03.521Z,101462.66
2022-11-26T07:41:10.199Z,101469.78
2022-11-26T07:43:12.198Z,101467.47
2022-11-26T07:45:14.194Z,101471.81
2022-11-26T07:47:16.059Z,101468.88
2022-11-26T07:49:17.996Z,101473.69
2022-11-26T07:51:22.308Z,101478.53
2022-11-26T07:53:28.631Z,101482.44
2022-11-26T07:55:31.486Z,101481.41
2022-11-26T07:57:35.399Z,101480.53
2022-11-26T07:59:38.332Z,101486.25
2022-11-26T08:01:43.189Z,101493.28
2022-11-26T08:03:47.994Z,101487.00
2022-11-26T08:05:50.941Z,101493.06
2022-11-26T08:07:56.995Z,101492.06
2022-11-26T08:10:06.714Z,101489.75
2022-11-26T08:12:08.602Z,101489.53
2022-11-26T08:14:12.830Z,101482.81
2022-11-26T08:16:22.910Z,101493.34
2022-11-26T08:18:24.845Z,101479.19
2022-11-26T08:20:29.051Z,101486.25
2022-11-26T08:22:32.240Z,101487.59
2022-11-26T08:24:34.204Z,101491.53
2022-11-26T08:26:39.849Z,101491.53
2022-11-26T08:28:45.778Z,101495.03
2022-11-26T08:31:01.847Z,101494.78
2022-11-26T08:33:04.976Z,101490.09
2022-11-26T08:35:07.161Z,101494.53
2022-11-26T08:37:09.112Z,101497.06
2022-11-26T08:39:17.564Z,101502.84
2022-11-26T08:41:19.899Z,101505.28
2022-11-26T08:43:34.546Z,101508.31
2022-11-26T08:45:44.658Z,101513.91
2022-11-26T08:47:46.601Z,101513.53
2022-11-26T08:49:51.617Z,101518.28
2022-11-26T08:51:57.397Z,101518.25
2022-11-26T08:53:59.448Z,101520.34
2022-11-26T08:56:10.993Z,101517.91
2022-11-26T08:58:15.240Z,101519.97
2022-11-26T09:00:18.571Z,101520.19
2022-11-26T09:02:20.606Z,101524.72
2022-11-26T09:04:22.618Z,101517.78
2022-11-26T09:06:26.964Z,101523.97
2022-11-26T09:08:29.929Z,101524.88
2022-11-26T09:10:31.851Z,101530.16
2022-11-26T09:12:33.727Z,101531.25
2022-11-26T09:14:39.173Z,101531.03
2022-11-26T09:16:43.892Z,101533.78
2022-11-26T09:18:52.203Z,101524.44
2022-11-26T09:20:57.178Z,101531.00
2022-11-26T09:22:59.311Z,101529.88
2022-11-26T09:25:01.277Z,101533.41
2022-11-26T09:27:12.160Z,101532.75
2022-11-26T09:29:16.087Z,101534.06
2022-11-26T09:31:21.214Z,101537.03
2022-11-26T09:33:30.001Z,101532.75
2022-11-26T09:35:32.241Z,101535.06
2022-11-26T09:37:36.157Z,101541.66
2022-11-26T09:39:45.154Z,101539.13
2022-11-26T09:42:14.731Z,101539.88
2022-11-26T09:44:40.904Z,101541.88
2022-11-26T09:47:12.192Z,101531.25
2022-11-26T09:49:16.104Z,101532.25
2022-11-26T09:51:20.663Z,101531.91
2022-11-26T09:53:41.798Z,101533.28
2022-11-26T09:55:47.891Z,101540.16
2022-11-26T09:58:33.076Z,101538.34
2022-11-26T10:00:42.818Z,101540.22
2022-11-26T10:02:44.741Z,101540.50
2022-11-26T10:04:47.218Z,101540.78
2022-11-26T10:06:59.275Z,101541.28
2022-11-26T10:09:22.327Z,101551.28
2022-11-26T10:11:55.876Z,101548.72
2022-11-26T10:14:09.965Z,101547.59
2022-11-26T10:16:40.540Z,101554.19
2022-11-26T10:19:05.540Z,101547.47
2022-11-26T10:21:18.269Z,101556.41
2022-11-26T10:23:36.150Z,101560.25
2022-11-26T10:25:54.751Z,101561.38
2022-11-26T10:27:58.527Z,101560.63
2022-11-26T10:30:09.730Z,101565.44
2022-11-26T10:32:27.472Z,101562.78
2022-11-26T10:34:46.416Z,101565.69
2022-11-26T10:36:49.582Z,101572.28
2022-11-26T10:38:52.956Z,101568.72
2022-11-26T10:40:54.814Z,101560.19
2022-11-26T10:42:59.578Z,101567.91
2022-11-26T10:45:21.128Z,101563.06
2022-11-26T10:47:32.588Z,101563.34
2022-11-26T10:49:34.465Z,101564.22
2022-11-26T10:51:38.689Z,101560.81
2022-11-26T10:54:01.587Z,101566.88
2022-11-26T10:56:07.569Z,101565.75
2022-11-26T10:58:19.820Z,101563.34
2022-11-26T11:00:27.692Z,101568.69
2022-11-26T11:02:41.475Z,101562.84
2022-11-26T11:05:06.228Z,101562.78
2022-11-26T11:07:29.696Z,101569.97
2022-11-26T11:09:35.459Z,101571.47
2022-11-26T11:11:37.227Z,101568.28
2022-11-26T11:13:44.940Z,101571.69
2022-11-26T11:15:46.880Z,101574.50
2022-11-26T11:18:13.391Z,101573.22
2022-11-26T11:20:15.267Z,101581.59
2022-11-26T11:22:21.171Z,101579.56
2022-11-26T11:24:30.027Z,101581.53
2022-11-26T11:26:40.376Z,101577.91
2022-11-26T11:28:48.575Z,101587.38
2022-11-26T11:31:02.701Z,101581.41
2022-11-26T11:33:17.013Z,101584.00
2022-11-26T11:35:26.186Z,101594.13
2022-11-26T11:37:28.446Z,101590.72
2022-11-26T11:39:35.490Z,101597.19
2022-11-26T11:41:38.415Z,101597.81
2022-11-26T11:43:42.291Z,101606.56
2022-11-26T11:45:55.946Z,101606.25
2022-11-26T11:48:04.335Z,101605.47
2022-11-26T11:50:21.262Z,101603.09
2022-11-26T11:52:34.905Z,101602.00
2022-11-26T11:54:57.150Z,101602.66
2022-11-26T11:57:07.369Z,101607.78
2022-11-26T12:00:09.792Z,101603.59
2022-11-26T12:02:17.356Z,101601.94
2022-11-26T12:04:38.276Z,101606.88
2022-11-26T12:06:49.339Z,101607.00
2022-11-26T12:09:00.043Z,101607.00
2022-11-26T12:11:22.558Z,101607.53
2022-11-26T12:13:27.029Z,101610.06
2022-11-26T12:15:34.035Z,101614.38
2022-11-26T12:17:47.699Z,101618.66
2022-11-26T12:20:04.613Z,101618.66
2022-11-26T12:22:30.060Z,101616.91
2022-11-26T12:25:01.842Z,101613.59
2022-11-26T12:27:52.773Z,101615.84
2022-11-26T12:30:14.934Z,101615.91
2022-11-26T12:32:21.987Z,101618.38
2022-11-26T12:34:31.754Z,101619.44
2022-11-26T12:36:51.366Z,101610.59
2022-11-26T12:38:57.776Z,101623.84
2022-11-26T12:41:06.839Z,101620.91
2022-11-26T12:43:19.208Z,101624.59
2022-11-26T12:45:39.114Z,101627.25
2022-11-26T12:47:52.066Z,101621.69
2022-11-26T12:50:09.480Z,101631.94
2022-11-26T12:52:14.067Z,101631.03
2022-11-26T12:54:24.098Z,101630.66
2022-11-26T12:56:32.535Z,101623.16
2022-11-26T12:59:06.165Z,101627.34
2022-11-26T13:01:14.053Z,101633.56
2022-11-26T13:03:32.411Z,101621.75
2022-11-26T13:06:16.241Z,101630.53
2022-11-26T13:08:20.572Z,101632.94
2022-11-26T13:10:28.340Z,101642.19
2022-11-26T13:12:46.901Z,101630.81
2022-11-26T13:14:52.357Z,101636.94
2022-11-26T13:17:14.298Z,101638.44
2022-11-26T13:19:20.439Z,101645.41
2022-11-26T13:21:46.212Z,101650.69
2022-11-26T13:23:51.182Z,101647.41
2022-11-26T13:26:36.711Z,101653.47
2022-11-26T13:28:56.022Z,101650.84
2022-11-26T13:31:06.253Z,101658.31
2022-11-26T13:33:23.049Z,101657.41
2022-11-26T13:35:57.287Z,101657.19
2022-11-26T13:38:20.629Z,101658.72
2022-11-26T13:40:53.593Z,101657.81
2022-11-26T13:43:43.556Z,101659.44
2022-11-26T13:46:16.451Z,101662.00
2022-11-26T13:48:43.014Z,101662.63
2022-11-26T13:50:53.099Z,101670.47
2022-11-26T13:53:14.381Z,101665.16
2022-11-26T13:55:22.739Z,101679.34
2022-11-26T13:57:31.826Z,101679.09
2022-11-26T13:59:34.817Z,101681.78
2022-11-26T14:01:43.335Z,101686.03
2022-11-26T14:03:49.048Z,101688.28
2022-11-26T14:05:50.926Z,101698.03
2022-11-26T14:08:38.622Z,101691.19
2022-11-26T14:10:42.759Z,101693.19
2022-11-26T14:13:02.859Z,101697.38
2022-11-26T14:15:41.247Z,101690.16
2022-11-26T14:17:57.214Z,101695.88
2022-11-26T14:20:01.093Z,101686.63
2022-11-26T14:22:04.004Z,101690.81
2022-11-26T14:24:05.968Z,101695.00
2022-11-26T14:26:12.599Z,101699.03
2022-11-26T14:28:16.512Z,101696.75
2022-11-26T14:30:27.534Z,101692.56
2022-11-26T14:32:34.052Z,101699.91
2022-11-26T14:34:47.664Z,101698.91
2022-11-26T14:37:00.236Z,101700.69
2022-11-26T14:39:09.397Z,101705.50
2022-11-26T14:41:18.074Z,101703.75
2022-11-26T14:43:20.337Z,101709.81
2022-11-26T14:45:24.415Z,101712.34
2022-11-26T14:47:27.664Z,101713.88
2022-11-26T14:49:43.201Z,101711.22
2022-11-26T14:51:48.012Z,101715.53
2022-11-26T14:53:51.126Z,101717.94
2022-11-26T14:55:53.614Z,101712.63
2022-11-26T14:58:09.157Z,101718.66
2022-11-26T15:00:16.080Z,101721.47
2022-11-26T15:02:25.784Z,101712.63
2022-11-26T15:04:39.180Z,101721.75
2022-11-26T15:06:43.468Z,101715.78
2022-11-26T15:08:46.325Z,101718.19
2022-11-26T15:10:50.416Z,101719.94
2022-11-26T15:12:53.603Z,101711.84
2022-11-26T15:14:59.165Z,101715.91
2022-11-26T15:17:02.818Z,101715.16
2022-11-26T15:19:07.368Z,101715.16
2022-11-26T15:21:18.515Z,101722.41
2022-11-26T15:23:39.649Z,101725.22
2022-11-26T15:25:48.847Z,101727.13
2022-11-26T15:28:00.529Z,101724.44
2022-11-26T15:30:18.254Z,101723.31
2022-11-26T15:32:28.042Z,101724.44
2022-11-26T15:34:33.223Z,101736.97
2022-11-26T15:36:35.186Z,101732.16
2022-11-26T15:39:03.894Z,101737.97
2022-11-26T15:41:08.557Z,101733.19
2022-11-26T15:43:45.898Z,101740.63
2022-11-26T15:45:49.066Z,101741.00
2022-11-26T15:47:54.708Z,101743.53
2022-11-26T15:50:01.089Z,101750.13
2022-11-26T15:52:15.597Z,101751.28
2022-11-26T15:54:30.821Z,101750.41
2022-11-26T15:56:40.569Z,101751.91
2022-11-26T15:58:43.231Z,101754.44
2022-11-26T16:00:51.757Z,101758.72
2022-11-26T16:02:54.973Z,101748.59
2022-11-26T16:05:01.536Z,101754.31
2022-11-26T16:07:21.944Z,101758.72
2022-11-26T16:09:31.910Z,101759.38
2022-11-26T16:11:37.139Z,101759.38
2022-11-26T16:13:39.023Z,101757.97
2022-11-26T16:16:04.527Z,101756.22
2022-11-26T16:18:17.005Z,101754.44
2022-11-26T16:20:25.172Z,101755.06
2022-11-26T16:22:33.098Z,101766.97
2022-11-26T16:24:43.935Z,101760.38
2022-11-26T16:26:58.474Z,101753.56
2022-11-26T16:29:00.413Z,101754.81
2022-11-26T16:31:02.829Z,101762.78
2022-11-26T16:33:08.506Z,101755.06
2022-11-26T16:35:43.637Z,101750.88
2022-11-26T16:37:44.383Z,101763.28
2022-11-26T16:39:47.457Z,101766.69
2022-11-26T16:41:49.329Z,101757.22
2022-11-26T16:43:54.780Z,101766.31
2022-11-26T16:45:59.271Z,101771.38
2022-11-26T16:48:02.437Z,101767.84
2022-11-26T16:50:05.231Z,101770.66
2022-11-26T16:52:12.533Z,101779.59
2022-11-26T16:54:17.315Z,101784.03
2022-11-26T16:56:39.079Z,101785.56
2022-11-26T16:58:40.865Z,101783.03
2022-11-26T17:00:51.356Z,101781.66
2022-11-26T17:02:54.322Z,101783.28
2022-11-26T17:04:56.397Z,101782.78
2022-11-26T17:06:58.462Z,101781.25
2022-11-26T17:09:01.428Z,101780.50
2022-11-26T17:11:06.545Z,101791.63
2022-11-26T17:13:08.933Z,101786.72
2022-11-26T17:15:11.598Z,101787.34
2022-11-26T17:17:29.564Z,101790.25
2022-11-26T17:19:34.947Z,101795.19
2022-11-26T17:21:36.873Z,101801.00
2022-11-26T17:23:39.665Z,101804.56
2022-11-26T17:25:48.897Z,101802.91
2022-11-26T17:27:50.924Z,101804.03
2022-11-26T17:29:57.555Z,101813.16
2022-11-26T17:32:01.751Z,101814.94
2022-11-26T17:34:03.914Z,101811.63
2022-11-26T17:36:16.966Z,101817.47
2022-11-26T17:38:22.300Z,101818.97
2022-11-26T17:40:27.390Z,101817.69
2022-11-26T17:42:33.579Z,101817.06
2022-11-26T17:44:43.590Z,101822.66
2022-11-26T17:47:09.543Z,101827.44
2022-11-26T17:49:16.254Z,101823.03
2022-11-26T17:51:19.925Z,101825.81
2022-11-26T17:53:25.117Z,101821.25
2022-11-26T17:55:33.960Z,101825.31
2022-11-26T17:57:36.392Z,101829.47
2022-11-26T17:59:40.012Z,101826.56
2022-11-26T18:01:43.713Z,101823.03
2022-11-26T18:03:46.414Z,101823.16
2022-11-26T18:05:48.428Z,101830.75
2022-11-26T18:07:50.969Z,101820.75
2022-11-26T18:09:53.238Z,101828.34
2022-11-26T18:11:56.451Z,101825.56
2022-11-26T18:13:58.500Z,101823.66
2022-11-26T18:16:00.857Z,101834.03
2022-11-26T18:18:03.255Z,101838.84
2022-11-26T18:20:06.084Z,101827.06
2022-11-26T18:22:15.399Z,101834.94
2022-11-26T18:24:21.205Z,101833.91
2022-11-26T18:26:23.134Z,101835.66
2022-11-26T18:28:25.250Z,101833.78
2022-11-26T18:30:27.673Z,101832.13
2022-11-26T18:32:31.207Z,101846.28
2022-11-26T18:34:33.283Z,101842.78
2022-11-26T18:36:48.214Z,101837.94
2022-11-26T18:38:57.909Z,101840.72
2022-11-26T18:41:08.565Z,101850.38
2022-11-26T18:43:12.363Z,101850.50
2022-11-26T18:45:18.484Z,101849.59
2022-11-26T18:47:21.090Z,101853.91
2022-11-26T18:49:23.376Z,101848.31
2022-11-26T18:51:30.275Z,101844.28
2022-11-26T18:53:32.990Z,101846.56
2022-11-26T18:55:39.585Z,101842.78
2022-11-26T18:57:42.056Z,101840.25
2022-11-26T18:59:47.496Z,101855.91
2022-11-26T19:01:51.145Z,101853.38
2022-11-26T19:03:55.836Z,101852.38
2022-11-26T19:05:59.116Z,101848.97
2022-11-26T19:08:03.434Z,101859.31
2022-11-26T19:10:06.139Z,101854.50
2022-11-26T19:12:08.498Z,101854.03
2022-11-26T19:14:13.862Z,101858.06
2022-11-26T19:16:18.095Z,101850.59
2022-11-26T19:18:20.661Z,101860.47
2022-11-26T19:20:23.268Z,101858.69
2022-11-26T19:22:25.301Z,101863.13
2022-11-26T19:24:29.090Z,101870.72
2022-11-26T19:26:31.740Z,101870.72
2022-11-26T19:28:33.865Z,101879.47
2022-11-26T19:30:37.855Z,101883.50
2022-11-26T19:32:40.789Z,101882.75
2022-11-26T19:34:43.140Z,101887.94
2022-11-26T19:36:48.970Z,101881.47
2022-11-26T19:38:56.560Z,101887.31
2022-11-26T19:41:00.613Z,101894.25
2022-11-26T19:43:02.915Z,101893.09
2022-11-26T19:45:05.506Z,101888.81
2022-11-26T19:47:07.872Z,101890.72
2022-11-26T19:49:13.529Z,101889.84
2022-11-26T19:51:17.669Z,101896.66
2022-11-26T19:53:20.043Z,101887.31
2022-11-26T19:55:23.744Z,101888.31
2022-11-26T19:57:26.560Z,101884.78
2022-11-26T19:59:29.310Z,101895.38
2022-11-26T20:01:35.154Z,101885.66
2022-11-26T20:03:37.953Z,101888.91
2022-11-26T20:05:40.828Z,101893.63
2022-11-26T20:07:45.787Z,101903.75
2022-11-26T20:09:51.926Z,101898.06
2022-11-26T20:11:54.194Z,101894.34
2022-11-26T20:13:57.461Z,101903.75
2022-11-26T20:16:00.554Z,101901.47
2022-11-26T20:18:02.911Z,101906.28
2022-11-26T20:20:05.443Z,101900.94
2022-11-26T20:22:07.834Z,101902.19
2022-11-26T20:24:14.972Z,101906.47
2022-11-26T20:26:19.587Z,101911.53
2022-11-26T20:28:22.452Z,101913.56
2022-11-26T20:30:26.548Z,101914.06
2022-11-26T20:32:28.473Z,101909.91
2022-11-26T20:34:33.805Z,101909.00
2022-11-26T20:36:38.219Z,101908.00
2022-11-26T20:38:40.604Z,101910.53
2022-11-26T20:40:43.814Z,101909.53
2022-11-26T20:42:46.943Z,101905.34
2022-11-26T20:44:49.432Z,101905.47
2022-11-26T20:46:52.457Z,101908.13
2022-11-26T20:48:54.831Z,101908.13
2022-11-26T20:51:01.590Z,101909.00
2022-11-26T20:53:04.847Z,101903.53
2022-11-26T20:55:07.965Z,101912.53
2022-11-26T20:57:10.187Z,101906.69
2022-11-26T20:59:12.655Z,101906.06
2022-11-26T21:01:29.099Z,101906.63
2022-11-26T21:03:32.220Z,101909.78
2022-11-26T21:05:34.412Z,101905.97
2022-11-26T21:07:38.594Z,101906.69
2022-11-26T21:09:42.646Z,101910.25
2022-11-26T21:11:46.618Z,101908.50
2022-11-26T21:13:48.951Z,101904.94
2022-11-26T21:15:51.338Z,101906.97
2022-11-26T21:17:54.362Z,101911.03
2022-11-26T21:19:56.520Z,101903.19
2022-11-26T21:21:58.417Z,101903.19
2022-11-26T21:24:04.695Z,101913.31
2022-11-26T21:26:11.909Z,101909.75
2022-11-26T21:28:15.092Z,101907.94
2022-11-26T21:30:17.683Z,101907.47
2022-11-26T21:32:19.585Z,101911.50
2022-11-26T21:34:21.527Z,101916.81
2022-11-26T21:36:24.948Z,101915.59
2022-11-26T21:38:27.001Z,101918.63
2022-11-26T21:40:29.321Z,101915.59
2022-11-26T21:42:31.258Z,101917.09
2022-11-26T21:44:33.621Z,101918.13
2022-11-26T21:46:38.634Z,101921.78
2022-11-26T21:48:40.939Z,101925.19
2022-11-26T21:50:42.939Z,101926.38
2022-11-26T21:52:45.181Z,101920.16
2022-11-26T21:54:48.457Z,101922.66
2022-11-26T21:56:50.503Z,101926.50
2022-11-26T21:58:52.880Z,101925.34
2022-11-26T22:00:57.316Z,101920.91
2022-11-26T22:02:59.511Z,101929.78
2022-11-26T22:05:01.514Z,101928.28
2022-11-26T22:07:04.069Z,101932.56
2022-11-26T22:09:06.399Z,101930.94
2022-11-26T22:11:14.036Z,101926.75
2022-11-26T22:13:16.156Z,101932.72
2022-11-26T22:15:18.335Z,101937.00
2022-11-26T22:17:20.425Z,101932.56
2022-11-26T22:19:22.497Z,101943.47
2022-11-26T22:21:25.942Z,101941.19
2022-11-26T22:23:30.877Z,101939.91
2022-11-26T22:25:33.808Z,101945.50
2022-11-26T22:27:35.739Z,101953.34
2022-11-26T22:29:38.236Z,101944.00
2022-11-26T22:31:40.843Z,101949.06
2022-11-26T22:33:42.956Z,101947.03
2022-11-26T22:35:45.049Z,101952.56
2022-11-26T22:37:46.913Z,101952.88
2022-11-26T22:39:53.625Z,101951.34
2022-11-26T22:41:55.879Z,101952.22
2022-11-26T22:44:03.768Z,101958.66
2022-11-26T22:46:07.616Z,101959.69
2022-11-26T22:48:12.050Z,101955.41
2022-11-26T22:50:16.316Z,101952.56
2022-11-26T22:52:18.423Z,101955.88
2022-11-26T22:54:21.509Z,101954.13
2022-11-26T22:56:23.805Z,101951.06
2022-11-26T22:58:30.295Z,101956.13
2022-11-26T23:01:07.866Z,101947.97
2022-11-26T23:03:09.973Z,101946.53
2022-11-26T23:05:12.003Z,101953.22
2022-11-26T23:07:15.107Z,101948.16
2022-11-26T23:09:17.185Z,101944.34
2022-11-26T23:11:25.487Z,101951.81
2022-11-26T23:13:27.465Z,101942.56
2022-11-26T23:15:29.573Z,101952.44
2022-11-26T23:17:31.477Z,101950.78
2022-11-26T23:19:33.496Z,101951.53
2022-11-26T23:21:40.094Z,101950.38
2022-11-26T23:23:43.182Z,101940.25
2022-11-26T23:25:45.191Z,101947.09
2022-11-26T23:27:47.806Z,101956.31
2022-11-26T23:29:49.879Z,101946.97
2022-11-26T23:31:51.886Z,101946.09
2022-11-26T23:33:53.990Z,101947.84
2022-11-26T23:35:56.866Z,101942.66
2022-11-26T23:37:58.804Z,101943.66
2022-11-26T23:40:00.825Z,101947.72
2022-11-26T23:42:02.886Z,101942.53
2022-11-26T23:44:05.088Z,101939.84
2022-11-26T23:46:28.221Z,101947.72
2022-11-26T23:48:30.818Z,101943.41
2022-11-26T23:50:33.996Z,101950.25
2022-11-26T23:52:36.533Z,101942.78
2022-11-26T23:54:38.459Z,101941.75
2022-11-26T23:56:44.581Z,101940.00
2022-11-26T23:59:00.536Z,101937.00
